Archiv-/Tagesdaten

--Timestamp---	Temp	Chill	HIndex	Humid	Dewpt	Wind	HiWind	WindDir	Rain	Barom	Solar	ET	UV
--------------	----	-----	------	-----	-----	----	------	-------	----	-----	-----	--	--
20080225 00:05	6.2	6.2	6.2	72	1.6	3	6	202	0.00	1020.728	0	0.000	0
20080225 00:10	6.1	6.1	6.1	72	1.4	2	6	202	0.00	1020.694	0	0.000	0
20080225 00:15	6.2	6.2	6.2	72	1.5	2	8	202	0.00	1020.694	0	0.000	0
20080225 00:20	6.1	6.1	6.1	72	1.4	2	6	202	0.00	1020.660	0	0.000	0
20080225 00:25	6.1	6.1	6.1	72	1.4	3	8	180	0.00	1020.660	0	0.000	0
20080225 00:30	6.2	6.2	6.2	72	1.5	2	6	202	0.00	1020.593	0	0.000	0
20080225 00:35	6.2	6.2	6.2	71	1.3	3	6	180	0.00	1020.694	0	0.000	0
20080225 00:40	6.1	6.1	6.1	71	1.2	2	6	180	0.00	1020.660	0	0.000	0
20080225 00:45	5.9	5.9	5.9	72	1.3	2	8	202	0.00	1020.660	0	0.000	0
20080225 00:50	5.7	5.7	5.7	72	1.1	2	5	180	0.00	1020.728	0	0.000	0
20080225 00:55	5.6	5.6	5.6	73	1.1	3	6	180	0.00	1020.762	0	0.000	0
20080225 01:00	5.5	5.5	5.5	73	1.0	3	10	202	0.00	1020.796	0	0.020	0
20080225 01:05	5.4	5.4	5.4	73	1.0	3	10	202	0.00	1020.525	0	0.000	0
20080225 01:10	5.4	5.4	5.4	74	1.1	5	8	202	0.00	1020.627	0	0.000	0
20080225 01:15	5.3	5.3	5.3	74	1.0	5	8	202	0.00	1020.660	0	0.000	0
20080225 01:20	5.3	5.3	5.3	74	1.0	3	6	202	0.00	1020.660	0	0.000	0
20080225 01:25	5.3	5.3	5.3	74	1.0	2	5	202	0.00	1020.728	0	0.000	0
20080225 01:30	5.3	5.3	5.3	73	0.8	0	3	202	0.00	1020.660	0	0.000	0
20080225 01:35	5.3	5.3	5.3	74	1.0	0	3	180	0.00	1020.627	0	0.000	0
20080225 01:40	5.3	5.3	5.3	73	0.9	2	8	180	0.00	1020.627	0	0.000	0
20080225 01:45	5.3	5.3	5.3	73	0.9	2	5	180	0.00	1020.627	0	0.000	0
20080225 01:50	5.3	5.3	5.3	73	0.9	0	0	180	0.00	1020.559	0	0.000	0
20080225 01:55	5.3	5.3	5.3	73	0.9	0	0	180	0.00	1020.457	0	0.000	0
20080225 02:00	5.3	5.3	5.3	73	0.9	3	8	180	0.00	1020.457	0	0.020	0
20080225 02:05	5.4	5.4	5.4	73	0.9	3	8	180	0.00	1020.322	0	0.000	0
20080225 02:10	5.5	5.5	5.5	77	1.8	5	6	180	0.00	1020.186	0	0.000	0
20080225 02:15	5.7	5.7	5.7	72	1.1	0	0	180	0.00	1020.152	0	0.000	0
20080225 02:20	5.9	5.9	5.9	71	1.1	0	0	180	0.00	1020.017	0	0.000	0
20080225 02:25	6.2	6.2	6.2	70	1.1	0	0	180	0.00	1020.017	0	0.000	0
20080225 02:30	6.4	6.4	6.4	70	1.3	0	0	180	0.00	1019.983	0	0.000	0
20080225 02:35	6.6	6.6	6.6	69	1.3	0	0	180	0.00	1019.983	0	0.000	0
20080225 02:40	6.7	6.7	6.7	68	1.2	0	0	180	0.00	1020.017	0	0.000	0
20080225 02:45	6.7	6.7	6.7	68	1.2	0	0	180	0.00	1020.051	0	0.000	0
20080225 02:50	6.8	6.8	6.8	68	1.3	0	0	180	0.00	1020.017	0	0.000	0
20080225 02:55	6.8	6.8	6.8	68	1.3	0	0	180	0.00	1019.983	0	0.000	0
20080225 03:00	6.7	6.7	6.7	68	1.2	0	0	180	0.00	1019.915	0	0.020	0
20080225 03:05	6.7	6.7	6.7	68	1.2	0	0	180	0.00	1019.814	0	0.000	0
20080225 03:10	6.8	6.8	6.8	68	1.3	0	0	180	0.00	1019.915	0	0.000	0
20080225 03:15	6.8	6.8	6.8	68	1.3	0	0	225	0.00	1019.848	0	0.000	0
20080225 03:20	6.8	6.8	6.8	68	1.3	2	2	225	0.00	1019.882	0	0.000	0
20080225 03:25	6.8	6.8	6.8	68	1.3	0	0	225	0.00	1019.915	0	0.000	0
20080225 03:30	6.7	6.7	6.7	68	1.2	0	0	225	0.00	1019.848	0	0.000	0
20080225 03:35	6.6	6.6	6.6	68	1.1	0	0	225	0.00	1019.882	0	0.000	0
20080225 03:40	6.5	6.5	6.5	68	1.0	0	0	225	0.00	1019.882	0	0.000	0
20080225 03:45	6.4	6.4	6.4	68	1.0	0	0	225	0.00	1019.848	0	0.000	0
20080225 03:50	6.3	6.3	6.3	68	0.9	0	0	225	0.00	1019.915	0	0.000	0
20080225 03:55	6.2	6.2	6.2	68	0.8	0	0	225	0.00	1019.915	0	0.000	0
20080225 04:00	6.1	6.1	6.1	69	0.9	0	0	225	0.00	1019.915	0	0.020	0
20080225 04:05	6.1	6.1	6.1	69	0.8	0	0	225	0.00	1020.152	0	0.000	0
20080225 04:10	5.9	5.9	5.9	69	0.7	5	8	202	0.00	1020.186	0	0.000	0
20080225 04:15	5.9	4.7	5.9	69	0.7	6	11	202	0.00	1020.254	0	0.000	0
20080225 04:20	5.9	4.7	5.9	69	0.7	6	10	202	0.00	1020.288	0	0.000	0
20080225 04:25	5.9	4.7	5.9	69	0.7	6	10	202	0.00	1020.288	0	0.000	0
20080225 04:30	6.0	4.8	6.0	68	0.5	6	11	202	0.00	1020.288	0	0.000	0
20080225 04:35	6.0	4.8	6.0	68	0.5	6	10	202	0.00	1020.288	0	0.000	0
20080225 04:40	6.0	4.8	6.0	68	0.5	6	10	202	0.00	1020.288	0	0.000	0
20080225 04:45	6.0	4.8	6.0	68	0.5	6	6	202	0.00	1020.356	0	0.000	0
20080225 04:50	5.9	5.9	5.9	68	0.5	0	0	202	0.00	1020.423	0	0.000	0
20080225 04:55	5.9	5.9	5.9	68	0.5	0	0	202	0.00	1020.390	0	0.000	0
20080225 05:00	5.9	5.9	5.9	69	0.7	0	0	202	0.00	1020.457	0	0.020	0
20080225 05:05	5.9	5.9	5.9	69	0.6	0	0	202	0.00	1020.830	0	0.000	0
20080225 05:10	5.8	4.6	5.8	69	0.6	6	10	202	0.00	1020.897	0	0.000	0
20080225 05:15	5.8	4.5	5.8	69	0.5	6	14	202	0.00	1020.931	0	0.000	0
20080225 05:20	5.7	4.4	5.7	70	0.7	6	10	202	0.00	1020.931	0	0.000	0
20080225 05:25	5.7	5.7	5.7	70	0.6	5	10	202	0.00	1020.999	0	0.000	0
20080225 05:30	5.6	5.6	5.6	70	0.6	5	10	202	0.00	1021.033	0	0.000	0
20080225 05:35	5.5	5.5	5.5	71	0.7	5	10	225	0.00	1021.067	0	0.000	0
20080225 05:40	5.4	5.4	5.4	71	0.6	5	8	225	0.00	1021.101	0	0.000	0
20080225 05:45	5.4	4.1	5.4	71	0.6	6	10	202	0.00	1021.067	0	0.000	0
20080225 05:50	5.4	5.4	5.4	71	0.6	5	10	202	0.00	1021.134	0	0.000	0
20080225 05:55	5.4	5.4	5.4	71	0.6	3	6	202	0.00	1021.168	0	0.000	0
20080225 06:00	5.4	5.4	5.4	71	0.6	5	6	202	0.00	1021.236	0	0.020	0
20080225 06:05	5.3	5.3	5.3	71	0.5	3	8	225	0.00	1021.575	0	0.000	0
20080225 06:10	5.4	5.4	5.4	71	0.6	3	6	225	0.00	1021.643	0	0.000	0
20080225 06:15	5.5	5.5	5.5	71	0.7	2	6	225	0.00	1021.609	0	0.000	0
20080225 06:20	5.8	5.8	5.8	70	0.7	3	8	225	0.00	1021.676	0	0.000	0
20080225 06:25	6.1	6.1	6.1	69	0.9	3	6	225	0.00	1021.575	0	0.000	0
20080225 06:30	6.3	6.3	6.3	68	0.9	2	6	225	0.00	1021.643	0	0.000	0
20080225 06:35	6.3	6.3	6.3	68	0.9	3	8	225	0.00	1021.744	0	0.000	0
20080225 06:40	6.3	6.3	6.3	68	0.8	3	5	247	0.00	1021.778	0	0.000	0
20080225 06:45	6.2	6.2	6.2	68	0.8	2	6	247	0.00	1021.812	0	0.000	0
20080225 06:50	6.2	6.2	6.2	68	0.8	3	8	247	0.00	1021.947	0	0.000	0
20080225 06:55	6.3	6.3	6.3	68	0.8	3	6	247	0.00	1021.981	0	0.000	0
20080225 07:00	6.3	6.3	6.3	68	0.9	3	8	247	0.00	1022.049	0	0.000	0
20080225 07:05	6.4	6.4	6.4	67	0.8	5	8	247	0.00	1022.354	0	0.000	0
20080225 07:10	6.5	6.5	6.5	67	0.8	3	8	247	0.00	1022.387	5	0.000	0
20080225 07:15	6.6	6.6	6.6	67	0.9	5	8	247	0.00	1022.421	7	0.000	0
20080225 07:20	6.8	6.8	6.8	66	0.9	5	14	247	0.00	1022.489	10	0.000	0
20080225 07:25	7.1	7.1	7.1	65	0.9	3	8	225	0.00	1022.455	12	0.000	0
20080225 07:30	7.4	7.4	7.4	64	1.0	3	10	247	0.00	1022.523	14	0.000	0
20080225 07:35	7.6	7.6	7.6	63	1.0	3	8	247	0.00	1022.523	17	0.000	0
20080225 07:40	7.8	7.8	7.8	62	1.0	5	10	247	0.00	1022.591	20	0.000	0
20080225 07:45	7.9	7.9	7.9	62	1.1	3	10	225	0.00	1022.794	23	0.000	0
20080225 07:50	8.1	8.1	8.1	62	1.2	5	14	247	0.00	1022.658	28	0.000	0
20080225 07:55	8.3	7.4	8.3	61	1.2	6	14	225	0.00	1022.760	35	0.000	0
20080225 08:00	8.4	8.4	8.4	61	1.4	5	10	247	0.00	1022.794	41	0.020	0
20080225 08:05	8.7	8.7	8.7	60	1.3	5	11	247	0.00	1022.760	49	0.000	0
20080225 08:10	8.9	8.9	8.9	60	1.5	5	11	270	0.00	1022.828	58	0.000	0
20080225 08:15	9.2	9.2	9.2	59	1.6	5	16	247	0.00	1022.828	67	0.000	0
20080225 08:20	9.5	9.5	9.5	59	1.9	5	11	270	0.00	1022.658	69	0.000	0
20080225 08:25	9.8	9.1	9.8	58	1.9	6	23	247	0.00	1022.760	67	0.000	0
20080225 08:30	10.1	10.1	10.1	57	1.9	8	16	247	0.00	1022.760	68	0.000	0
20080225 08:35	10.3	10.3	10.3	57	2.1	8	16	247	0.00	1022.862	70	0.000	0
20080225 08:40	10.4	10.4	10.4	56	2.0	8	21	247	0.00	1022.895	70	0.000	0
20080225 08:45	10.6	10.6	10.6	56	2.1	8	14	247	0.00	1022.862	69	0.000	0
20080225 08:50	10.6	10.6	10.6	56	2.2	10	16	247	0.00	1023.031	72	0.000	0
20080225 08:55	10.7	10.7	10.7	56	2.3	8	18	247	0.00	1022.997	81	0.000	0
20080225 09:00	10.9	10.9	10.9	56	2.5	8	19	247	0.00	1023.099	83	0.060	0
20080225 09:05	11.1	11.1	11.1	56	2.6	6	14	247	0.00	1023.234	79	0.000	1
20080225 09:10	11.2	11.2	11.2	56	2.7	6	16	247	0.00	1023.302	73	0.000	1
20080225 09:15	11.3	11.3	11.3	56	2.9	8	19	247	0.00	1023.437	72	0.000	1
20080225 09:20	11.5	11.5	11.5	55	2.8	8	21	247	0.00	1023.437	73	0.000	1
20080225 09:25	11.6	11.6	11.6	55	2.8	10	19	247	0.00	1023.471	77	0.000	1
20080225 09:30	11.7	11.7	11.7	55	2.9	8	16	270	0.00	1023.437	80	0.000	1
20080225 09:35	11.9	11.9	11.9	55	3.1	8	19	247	0.00	1023.539	94	0.000	1
20080225 09:40	12.0	12.0	12.0	55	3.2	10	19	247	0.00	1023.403	103	0.000	1
20080225 09:45	12.1	12.1	12.1	55	3.3	8	18	247	0.00	1023.437	118	0.000	1
20080225 09:50	12.3	12.3	12.3	55	3.5	11	18	247	0.00	1023.403	122	0.000	1
20080225 09:55	12.4	12.4	12.4	54	3.3	11	23	270	0.00	1023.505	123	0.000	1
20080225 10:00	12.4	12.4	12.4	54	3.3	11	21	270	0.00	1023.539	125	0.080	1
20080225 10:05	12.4	12.4	12.4	54	3.3	8	19	247	0.00	1023.674	124	0.000	1
20080225 10:10	12.4	12.4	12.4	55	3.6	10	19	247	0.00	1023.674	135	0.000	1
20080225 10:15	12.4	12.4	12.4	55	3.7	6	18	247	0.00	1023.674	143	0.000	1
20080225 10:20	12.4	12.4	12.4	54	3.4	11	19	247	0.00	1023.708	147	0.000	1
20080225 10:25	12.4	12.4	12.4	54	3.4	11	19	247	0.00	1023.776	148	0.000	1
20080225 10:30	12.4	12.4	12.4	55	3.6	8	19	270	0.00	1023.844	151	0.000	1
20080225 10:35	12.4	12.4	12.4	55	3.7	10	18	270	0.00	1023.844	145	0.000	1
20080225 10:40	12.4	12.4	12.4	55	3.7	10	18	247	0.00	1023.844	132	0.000	1
20080225 10:45	12.4	12.4	12.4	56	3.9	8	18	270	0.00	1023.844	122	0.000	1
20080225 10:50	12.4	12.4	12.4	56	3.9	11	21	247	0.00	1023.844	130	0.000	1
20080225 10:55	12.5	12.5	12.5	56	4.0	11	21	270	0.00	1023.878	217	0.000	1
20080225 11:00	12.5	12.5	12.5	55	3.7	13	24	270	0.00	1023.640	227	0.100	2
20080225 11:05	12.7	12.7	12.7	55	3.9	11	23	270	0.00	1023.776	355	0.000	2
20080225 11:10	12.9	12.9	12.9	55	4.1	10	18	270	0.00	1023.810	379	0.000	2
20080225 11:15	13.1	13.1	13.1	54	4.0	10	19	247	0.00	1023.742	359	0.000	2
20080225 11:20	13.2	13.2	13.2	54	4.1	10	24	270	0.00	1023.674	410	0.000	2
20080225 11:25	13.3	13.3	13.3	54	4.2	13	19	270	0.00	1023.708	401	0.000	2
20080225 11:30	13.5	13.5	13.5	55	4.6	11	23	270	0.00	1023.776	445	0.000	2
20080225 11:35	13.7	13.7	13.7	55	4.8	16	26	270	0.00	1023.640	479	0.000	2
20080225 11:40	13.7	13.7	13.7	55	4.8	16	24	270	0.00	1023.640	252	0.000	2
20080225 11:45	13.6	13.6	13.6	55	4.7	14	26	292	0.00	1023.742	237	0.000	2
20080225 11:50	13.4	13.4	13.4	55	4.5	10	18	247	0.00	1023.776	224	0.000	2
20080225 11:55	13.4	13.4	13.4	56	4.8	10	21	270	0.00	1023.674	287	0.000	2
20080225 12:00	13.6	13.6	13.6	56	4.9	13	23	270	0.00	1023.640	413	0.200	2
20080225 12:05	13.7	13.7	13.7	56	5.0	13	24	270	0.00	1023.607	379	0.000	2
20080225 12:10	13.6	13.6	13.6	55	4.7	11	21	292	0.00	1023.640	273	0.000	2
20080225 12:15	13.5	13.5	13.5	55	4.6	10	23	270	0.00	1023.640	259	0.000	2
20080225 12:20	13.4	13.4	13.4	56	4.8	11	19	270	0.00	1023.640	274	0.000	2
20080225 12:25	13.5	13.5	13.5	57	5.1	8	16	270	0.00	1023.607	189	0.000	1
20080225 12:30	13.3	13.3	13.3	56	4.7	13	27	292	0.00	1023.573	183	0.000	1
20080225 12:35	13.2	13.2	13.2	56	4.6	11	19	270	0.00	1023.505	185	0.000	2
20080225 12:40	13.1	13.1	13.1	57	4.8	6	16	270	0.00	1023.471	203	0.000	2
20080225 12:45	13.2	13.2	13.2	57	4.8	6	16	270	0.00	1023.505	218	0.000	2
20080225 12:50	13.1	13.1	13.1	57	4.8	10	16	292	0.00	1023.437	205	0.000	1
20080225 12:55	13.1	13.1	13.1	57	4.8	8	16	247	0.00	1023.370	203	0.000	1
20080225 13:00	13.1	13.1	13.1	57	4.7	8	16	270	0.00	1023.336	259	0.140	2
20080225 13:05	13.2	13.2	13.2	57	4.8	6	14	247	0.00	1023.302	275	0.000	2
20080225 13:10	13.3	13.3	13.3	56	4.7	8	16	270	0.00	1023.302	277	0.000	2
20080225 13:15	13.3	13.3	13.3	57	4.9	11	21	315	0.00	1023.200	282	0.000	2
20080225 13:20	13.2	13.2	13.2	57	4.9	8	16	292	0.00	1023.166	253	0.000	2
20080225 13:25	13.2	13.2	13.2	57	4.9	11	19	292	0.00	1023.132	246	0.000	2
20080225 13:30	13.2	13.2	13.2	57	4.8	10	21	292	0.00	1023.099	238	0.000	2
20080225 13:35	13.2	13.2	13.2	56	4.6	6	13	270	0.00	1023.065	239	0.000	2
20080225 13:40	13.3	13.3	13.3	57	5.0	6	11	270	0.00	1022.929	269	0.000	2
20080225 13:45	13.4	13.4	13.4	57	5.1	8	18	270	0.00	1022.862	223	0.000	1
20080225 13:50	13.5	13.5	13.5	56	4.9	8	14	292	0.00	1022.794	217	0.000	1
20080225 13:55	13.4	13.4	13.4	56	4.8	6	11	270	0.00	1022.794	220	0.000	1
20080225 14:00	13.3	13.3	13.3	57	5.0	8	13	315	0.00	1022.760	187	0.140	1
20080225 14:05	13.2	13.2	13.2	59	5.4	5	11	292	0.00	1022.625	196	0.000	1
20080225 14:10	13.1	13.1	13.1	60	5.5	3	5	0	0.00	1022.625	198	0.000	1
20080225 14:15	13.1	13.1	13.1	60	5.5	6	16	315	0.00	1022.625	203	0.000	1
20080225 14:20	13.0	13.0	13.0	59	5.2	8	18	315	0.00	1022.658	213	0.000	1
20080225 14:25	13.0	13.0	13.0	59	5.2	6	11	292	0.00	1022.591	222	0.000	1
20080225 14:30	13.1	13.1	13.1	59	5.2	5	14	315	0.00	1022.421	223	0.000	1
20080225 14:35	13.1	13.1	13.1	59	5.3	8	21	292	0.00	1022.286	207	0.000	1
20080225 14:40	13.1	13.1	13.1	59	5.3	6	16	315	0.00	1022.286	196	0.000	1
20080225 14:45	13.1	13.1	13.1	58	5.0	6	16	292	0.00	1022.252	197	0.000	1
20080225 14:50	13.2	13.2	13.2	59	5.3	6	10	292	0.00	1022.218	193	0.000	1
20080225 14:55	13.2	13.2	13.2	58	5.1	6	16	292	0.00	1022.150	178	0.000	1
20080225 15:00	13.1	13.1	13.1	58	5.0	6	16	292	0.00	1022.083	167	0.100	1
20080225 15:05	13.0	13.0	13.0	58	4.9	6	14	315	0.00	1022.184	162	0.000	1
20080225 15:10	12.9	12.9	12.9	58	4.9	8	14	292	0.00	1022.150	164	0.000	1
20080225 15:15	12.9	12.9	12.9	59	5.1	10	16	292	0.00	1022.083	158	0.000	1
20080225 15:20	12.9	12.9	12.9	59	5.1	10	18	292	0.00	1022.049	156	0.000	1
20080225 15:25	12.9	12.9	12.9	58	4.8	8	14	315	0.00	1022.049	160	0.000	1
20080225 15:30	12.9	12.9	12.9	58	4.8	5	6	292	0.00	1022.083	154	0.000	1
20080225 15:35	12.9	12.9	12.9	58	4.8	6	11	315	0.00	1022.015	145	0.000	1
20080225 15:40	12.8	12.8	12.8	59	5.0	2	2	315	0.00	1022.049	148	0.000	1
20080225 15:45	12.8	12.8	12.8	60	5.3	0	0	315	0.00	1022.015	135	0.000	0
20080225 15:50	12.8	12.8	12.8	60	5.3	2	5	337	0.00	1021.947	128	0.000	0
20080225 15:55	12.8	12.8	12.8	59	5.0	6	8	315	0.00	1021.846	128	0.000	0
20080225 16:00	12.8	12.8	12.8	59	5.0	0	5	315	0.00	1021.880	118	0.080	0
20080225 16:05	12.8	12.8	12.8	60	5.2	0	0	315	0.00	1021.880	110	0.000	0
20080225 16:10	12.8	12.8	12.8	60	5.2	2	5	315	0.00	1021.880	106	0.000	0
20080225 16:15	12.7	12.7	12.7	59	4.9	0	3	315	0.00	1021.812	102	0.000	0
20080225 16:20	12.7	12.7	12.7	61	5.3	0	2	315	0.00	1021.710	98	0.000	0
20080225 16:25	12.7	12.7	12.7	60	5.1	0	2	315	0.00	1021.676	96	0.000	0
20080225 16:30	12.6	12.6	12.6	61	5.3	0	3	315	0.00	1021.710	93	0.000	0
20080225 16:35	12.6	12.6	12.6	62	5.5	0	2	315	0.00	1021.710	77	0.000	0
20080225 16:40	12.5	12.5	12.5	61	5.2	0	3	315	0.00	1021.643	74	0.000	0
20080225 16:45	12.4	12.4	12.4	62	5.3	0	2	315	0.00	1021.812	65	0.000	0
20080225 16:50	12.3	12.3	12.3	63	5.4	0	2	315	0.00	1021.846	56	0.000	0
20080225 16:55	12.2	12.2	12.2	63	5.3	0	3	315	0.00	1021.812	49	0.000	0
20080225 17:00	12.0	12.0	12.0	63	5.2	0	2	315	0.00	1021.778	46	0.040	0
20080225 17:05	11.8	11.8	11.8	64	5.2	0	2	315	0.00	1021.846	43	0.000	0
20080225 17:10	11.6	11.6	11.6	64	5.0	0	2	315	0.00	1021.812	38	0.000	0
20080225 17:15	11.4	11.4	11.4	64	4.9	0	2	315	0.00	1021.812	31	0.000	0
20080225 17:20	11.3	11.3	11.3	65	4.9	0	0	315	0.00	1021.880	25	0.000	0
20080225 17:25	11.2	11.2	11.2	65	4.8	0	0	315	0.00	1021.812	20	0.000	0
20080225 17:30	11.0	11.0	11.0	65	4.7	0	3	315	0.00	1021.880	17	0.000	0
20080225 17:35	10.8	10.8	10.8	66	4.7	3	5	0	0.00	1021.913	13	0.000	0
20080225 17:40	10.7	10.7	10.7	68	5.0	2	5	22	0.00	1022.015	11	0.000	0
20080225 17:45	10.6	10.6	10.6	69	5.2	3	6	22	0.00	1022.117	8	0.000	0
20080225 17:50	10.4	10.4	10.4	70	5.2	2	5	45	0.00	1022.150	3	0.000	0
20080225 17:55	10.1	10.1	10.1	70	4.9	0	5	67	0.00	1022.083	0	0.000	0
20080225 18:00	9.9	9.9	9.9	71	4.9	0	3	67	0.00	1022.117	0	0.020	0
20080225 18:05	9.7	9.7	9.7	72	4.9	2	5	67	0.00	1022.083	0	0.000	0
20080225 18:10	9.6	9.6	9.6	73	5.0	2	3	67	0.00	1022.150	0	0.000	0
20080225 18:15	9.4	9.4	9.4	73	4.8	2	5	67	0.00	1022.150	0	0.000	0
20080225 18:20	9.3	9.3	9.3	74	4.9	2	5	67	0.00	1022.218	0	0.000	0
20080225 18:25	9.2	9.2	9.2	74	4.8	0	3	67	0.00	1022.218	0	0.000	0
20080225 18:30	9.0	9.0	9.0	74	4.6	2	5	90	0.00	1022.387	0	0.000	0
20080225 18:35	8.8	8.8	8.8	74	4.5	2	5	135	0.00	1022.455	0	0.000	0
20080225 18:40	8.7	8.7	8.7	75	4.5	2	3	135	0.00	1022.320	0	0.000	0
20080225 18:45	8.5	8.5	8.5	75	4.3	0	3	135	0.00	1022.252	0	0.000	0
20080225 18:50	8.4	8.4	8.4	75	4.2	0	2	135	0.00	1022.354	0	0.000	0
20080225 18:55	8.2	8.2	8.2	76	4.2	0	3	135	0.00	1022.354	0	0.000	0
20080225 19:00	8.0	8.0	8.0	77	4.2	2	3	135	0.00	1022.320	0	0.000	0
20080225 19:05	7.9	7.9	7.9	77	4.1	0	2	135	0.00	1022.150	0	0.000	0
20080225 19:10	7.7	7.7	7.7	77	3.9	2	5	135	0.00	1022.117	0	0.000	0
20080225 19:15	7.5	7.5	7.5	79	4.1	2	3	135	0.00	1022.117	0	0.000	0
20080225 19:20	7.4	7.4	7.4	80	4.2	2	5	135	0.00	1022.049	0	0.000	0
20080225 19:25	7.4	7.4	7.4	80	4.2	2	3	135	0.00	1022.049	0	0.000	0
20080225 19:30	7.4	7.4	7.4	81	4.4	0	3	135	0.00	1022.015	0	0.000	0
20080225 19:35	7.4	7.4	7.4	80	4.2	0	3	135	0.00	1022.015	0	0.000	0
20080225 19:40	7.4	7.4	7.4	81	4.4	2	5	112	0.00	1021.981	0	0.000	0
20080225 19:45	7.5	7.5	7.5	81	4.5	3	8	112	0.00	1021.981	0	0.000	0
20080225 19:50	7.4	7.4	7.4	81	4.4	2	6	135	0.00	1021.913	0	0.000	0
20080225 19:55	7.4	7.4	7.4	81	4.4	0	3	135	0.00	1021.913	0	0.000	0
20080225 20:00	7.5	7.5	7.5	81	4.5	2	5	135	0.00	1021.778	0	0.020	0
20080225 20:05	7.6	7.6	7.6	80	4.3	0	5	157	0.00	1021.439	0	0.000	0
20080225 20:10	7.5	7.5	7.5	80	4.3	0	2	157	0.00	1021.439	0	0.000	0
20080225 20:15	7.4	7.4	7.4	80	4.2	0	2	157	0.00	1021.507	0	0.000	0
20080225 20:20	7.3	7.3	7.3	81	4.2	0	3	157	0.00	1021.507	0	0.000	0
20080225 20:25	7.2	7.2	7.2	81	4.2	0	3	157	0.00	1021.541	0	0.000	0
20080225 20:30	7.2	7.2	7.2	81	4.2	0	3	157	0.00	1021.507	0	0.000	0
20080225 20:35	7.1	7.1	7.1	81	4.0	0	3	157	0.00	1021.507	0	0.000	0
20080225 20:40	6.8	6.8	6.8	81	3.8	0	2	157	0.00	1021.575	0	0.000	0
20080225 20:45	6.7	6.7	6.7	81	3.6	0	0	157	0.00	1021.643	0	0.000	0
20080225 20:50	6.4	6.4	6.4	81	3.4	0	3	157	0.00	1021.609	0	0.000	0
20080225 20:55	6.3	6.3	6.3	83	3.6	2	5	157	0.00	1021.643	0	0.000	0
20080225 21:00	6.2	6.2	6.2	84	3.7	0	3	157	0.00	1021.676	0	0.000	0
20080225 21:05	6.2	6.2	6.2	85	3.8	0	2	157	0.00	1021.507	0	0.000	0
20080225 21:10	6.3	6.3	6.3	84	3.8	0	2	157	0.00	1021.507	0	0.000	0
20080225 21:15	6.3	6.3	6.3	84	3.8	0	3	157	0.00	1021.507	0	0.000	0
20080225 21:20	6.3	6.3	6.3	83	3.6	0	3	157	0.00	1021.439	0	0.000	0
20080225 21:25	6.2	6.2	6.2	83	3.5	0	2	157	0.00	1021.473	0	0.000	0
20080225 21:30	6.1	6.1	6.1	84	3.6	0	2	157	0.00	1021.473	0	0.000	0
20080225 21:35	6.1	6.1	6.1	84	3.6	0	3	157	0.00	1021.439	0	0.000	0
20080225 21:40	6.1	6.1	6.1	84	3.6	0	3	157	0.00	1021.507	0	0.000	0
20080225 21:45	6.1	6.1	6.1	84	3.6	0	3	157	0.00	1021.473	0	0.000	0
20080225 21:50	6.1	6.1	6.1	84	3.6	0	3	157	0.00	1021.439	0	0.000	0
20080225 21:55	5.9	5.9	5.9	84	3.4	0	2	157	0.00	1021.372	0	0.000	0
20080225 22:00	5.8	5.8	5.8	85	3.5	0	3	157	0.00	1021.338	0	0.000	0
20080225 22:05	5.7	5.7	5.7	84	3.2	0	2	157	0.00	1021.304	0	0.000	0
20080225 22:10	5.6	5.6	5.6	85	3.3	0	2	157	0.00	1021.338	0	0.000	0
20080225 22:15	5.5	5.5	5.5	85	3.2	0	2	157	0.00	1021.338	0	0.000	0
20080225 22:20	5.4	5.4	5.4	85	3.1	0	2	157	0.00	1021.304	0	0.000	0
20080225 22:25	5.3	5.3	5.3	86	3.1	0	2	157	0.00	1021.338	0	0.000	0
20080225 22:30	5.2	5.2	5.2	86	3.1	0	2	157	0.00	1021.304	0	0.000	0
20080225 22:35	5.1	5.1	5.1	86	3.0	0	0	157	0.00	1021.304	0	0.000	0
20080225 22:40	5.1	5.1	5.1	86	2.9	0	2	157	0.00	1021.202	0	0.000	0
20080225 22:45	4.9	4.9	4.9	87	3.0	0	2	157	0.00	1021.168	0	0.000	0
20080225 22:50	4.9	4.9	4.9	87	2.9	0	2	157	0.00	1021.067	0	0.000	0
20080225 22:55	4.8	4.8	4.8	87	2.9	0	3	157	0.00	1021.067	0	0.000	0
20080225 23:00	4.7	4.7	4.7	87	2.7	0	3	157	0.00	1021.033	0	0.000	0
20080225 23:05	4.7	4.7	4.7	87	2.7	0	2	157	0.00	1021.101	0	0.000	0
20080225 23:10	4.6	4.6	4.6	87	2.6	0	3	157	0.00	1021.202	0	0.000	0
20080225 23:15	4.5	4.5	4.5	87	2.5	2	5	157	0.00	1021.202	0	0.000	0
20080225 23:20	4.3	4.3	4.3	87	2.3	3	6	180	0.00	1021.168	0	0.000	0
20080225 23:25	4.1	4.1	4.1	88	2.3	3	8	202	0.00	1021.134	0	0.000	0
20080225 23:30	4.0	4.0	4.0	89	2.4	5	8	202	0.00	1021.168	0	0.000	0
20080225 23:35	3.9	3.9	3.9	89	2.3	0	3	202	0.00	1021.101	0	0.000	0
20080225 23:40	3.8	3.8	3.8	89	2.2	2	5	202	0.00	1021.101	0	0.000	0
20080225 23:45	3.8	3.8	3.8	89	2.1	3	8	202	0.00	1021.101	0	0.000	0
20080225 23:50	3.8	3.8	3.8	89	2.2	3	6	202	0.00	1021.033	0	0.000	0
20080225 23:55	4.0	4.0	4.0	89	2.4	3	10	202	0.00	1020.999	0	0.000	0
20080225 24:00	4.1	4.1	4.1	88	2.2	2	6	202	0.00	1020.999	0	0.000	0



Please note the license to use and transfer of this data:
http://creativecommons.org/licenses/by-nc-sa/3.0/deed.en

Bitte beachten sie die Lizenz zur Verwertung und Weitergabe der Daten:
http://creativecommons.org/licenses/by-nc-sa/3.0/deed.de

zurück zur Übersicht der Archivdaten (Monats und Tagesdaten)

Cookies helfen bei der Bereitstellung von Inhalten. Durch die Nutzung dieser Seiten erklärst du dich damit einverstanden, dass Cookies auf deinem Rechner gespeichert werden. Weitere Information